Time;durP1;ratioP1;P1;durP2;ratioP2;P2;SDS_P1;SDS_P2;PMS_P1;PMS_P2;Temp;Humidity;BMP_temperature;BMP_pressure;BME280_temperature;BME280_humidity;BME280_pressure;Samples;Min_cycle;Max_cycle;Signal;HPM_P1;HPM_P2
2023/08/03 00:00:22;;;;;;;2.78;0.60;;;22.80;1.00;;;;;;4922940;29;20055;-41
2023/08/03 00:02:49;;;;;;;3.53;0.45;;;22.80;1.00;;;;;;4924885;29;20045;-41
2023/08/03 00:05:17;;;;;;;2.55;0.63;;;22.70;1.00;;;;;;4923659;29;20052;-42
2023/08/03 00:07:44;;;;;;;2.50;1.00;;;22.80;1.00;;;;;;4913332;29;20041;-42
2023/08/03 00:10:12;;;;;;;2.05;0.77;;;22.70;1.00;;;;;;4918848;29;20048;-41
2023/08/03 00:12:38;;;;;;;1.90;0.85;;;22.70;1.00;;;;;;4924004;29;20056;-42
2023/08/03 00:15:06;;;;;;;3.97;0.70;;;22.70;1.00;;;;;;4917721;29;20071;-40
2023/08/03 00:17:33;;;;;;;2.28;0.57;;;22.70;1.00;;;;;;4914873;29;20049;-42
2023/08/03 00:20:03;;;;;;;2.67;0.80;;;22.70;1.00;;;;;;4925608;29;20043;-41
2023/08/03 00:22:31;;;;;;;2.70;0.68;;;22.70;1.00;;;;;;4916972;29;20068;-43
2023/08/03 00:24:58;;;;;;;2.38;0.50;;;22.70;1.00;;;;;;4924844;29;20094;-41
2023/08/03 00:27:25;;;;;;;6.97;0.77;;;22.70;1.00;;;;;;4925193;29;20040;-44
2023/08/03 00:29:53;;;;;;;5.35;2.13;;;22.70;1.00;;;;;;4913309;29;20041;-41
2023/08/03 00:32:20;;;;;;;2.00;0.50;;;22.70;1.00;;;;;;4921015;29;20089;-40
2023/08/03 00:34:48;;;;;;;3.13;0.70;;;22.70;1.00;;;;;;4893836;29;20127;-41
2023/08/03 00:37:16;;;;;;;2.25;0.93;;;22.70;1.00;;;;;;4899872;29;20079;-41
2023/08/03 00:39:43;;;;;;;3.30;0.50;;;22.70;1.00;;;;;;4924293;29;20048;-41
2023/08/03 00:42:10;;;;;;;2.10;0.50;;;22.70;1.00;;;;;;4900371;29;20055;-41
2023/08/03 00:44:37;;;;;;;1.73;0.63;;;22.70;1.00;;;;;;4892013;29;20055;-40
2023/08/03 00:47:04;;;;;;;4.18;0.85;;;22.70;1.00;;;;;;4908992;29;20123;-40
2023/08/03 00:49:32;;;;;;;2.13;0.75;;;22.70;1.00;;;;;;4908167;29;20069;-41
2023/08/03 00:51:59;;;;;;;3.17;0.88;;;22.70;1.00;;;;;;4924192;29;20515;-41
2023/08/03 00:54:27;;;;;;;3.33;1.00;;;22.70;1.00;;;;;;4908020;29;20155;-41
2023/08/03 00:56:54;;;;;;;3.13;0.57;;;22.70;1.00;;;;;;4900057;29;20129;-42
2023/08/03 00:59:21;;;;;;;4.75;0.68;;;22.60;1.00;;;;;;4899750;29;20455;-41
2023/08/03 01:01:48;;;;;;;4.80;0.55;;;22.60;1.00;;;;;;4905217;29;20052;-41
2023/08/03 01:04:15;;;;;;;4.20;1.15;;;22.60;1.00;;;;;;4903038;29;20100;-42
2023/08/03 01:06:42;;;;;;;3.40;0.73;;;22.60;1.00;;;;;;4905382;29;20064;-43
2023/08/03 01:09:09;;;;;;;2.42;1.10;;;22.60;1.00;;;;;;4912876;29;20033;-40
2023/08/03 01:11:36;;;;;;;4.05;0.80;;;22.60;1.00;;;;;;4920287;29;20076;-41
2023/08/03 01:14:03;;;;;;;5.07;1.80;;;22.60;1.00;;;;;;4917173;29;20103;-42
2023/08/03 01:16:30;;;;;;;3.63;0.93;;;22.60;1.00;;;;;;4892363;29;20052;-40
2023/08/03 01:18:57;;;;;;;3.20;1.20;;;22.60;1.00;;;;;;4907415;29;20044;-41
2023/08/03 01:21:25;;;;;;;3.95;0.73;;;22.60;1.00;;;;;;4908237;29;20404;-41
2023/08/03 01:23:53;;;;;;;2.00;0.50;;;22.60;1.00;;;;;;4887439;29;20567;-40
2023/08/03 01:26:20;;;;;;;3.63;0.57;;;22.60;1.00;;;;;;4927666;29;20044;-41
2023/08/03 01:28:47;;;;;;;3.67;1.10;;;22.60;1.00;;;;;;4902580;29;20063;-41
2023/08/03 01:31:15;;;;;;;5.30;1.27;;;22.60;1.00;;;;;;4902877;29;20052;-42
2023/08/03 01:33:42;;;;;;;3.42;1.25;;;22.60;1.00;;;;;;4902321;29;20134;-41
2023/08/03 01:36:09;;;;;;;4.47;0.93;;;22.60;1.00;;;;;;4902796;29;20098;-43
2023/08/03 01:38:36;;;;;;;2.38;0.75;;;22.60;1.00;;;;;;4902443;29;20048;-41
2023/08/03 01:41:05;;;;;;;4.05;0.95;;;22.60;1.00;;;;;;4927143;29;20261;-42
2023/08/03 01:43:32;;;;;;;3.85;0.90;;;22.60;1.00;;;;;;4927265;29;20044;-42
2023/08/03 01:45:58;;;;;;;4.25;1.40;;;22.60;1.00;;;;;;4910631;29;20072;-43
2023/08/03 01:48:26;;;;;;;5.40;0.95;;;22.60;1.00;;;;;;4903016;29;20105;-42
2023/08/03 01:50:53;;;;;;;3.47;0.75;;;22.60;1.00;;;;;;4919370;29;20040;-42
2023/08/03 01:53:20;;;;;;;3.83;0.80;;;22.60;1.00;;;;;;4927200;29;20044;-40
2023/08/03 01:55:46;;;;;;;4.03;0.70;;;22.60;1.00;;;;;;4908291;29;20056;-42
2023/08/03 01:58:14;;;;;;;1.50;0.55;;;22.60;1.00;;;;;;4921660;29;20040;-40
2023/08/03 02:00:41;;;;;;;2.10;0.60;;;22.60;1.00;;;;;;4902619;29;20622;-41
2023/08/03 02:03:08;;;;;;;3.97;0.60;;;22.60;1.00;;;;;;4921830;29;20033;-40
2023/08/03 02:05:35;;;;;;;1.80;0.57;;;22.60;1.00;;;;;;4899333;29;20049;-40
2023/08/03 02:08:02;;;;;;;2.60;0.82;;;22.50;1.00;;;;;;4910100;29;20044;-40
2023/08/03 02:10:29;;;;;;;5.20;1.15;;;22.50;1.00;;;;;;4919928;29;20449;-42
2023/08/03 02:12:56;;;;;;;1.55;0.82;;;22.50;1.00;;;;;;4926070;29;20063;-44
2023/08/03 02:15:24;;;;;;;2.97;0.63;;;22.50;1.00;;;;;;4909588;29;20054;-40
2023/08/03 02:17:51;;;;;;;3.35;0.55;;;22.50;1.00;;;;;;4927175;29;20123;-41
2023/08/03 02:20:18;;;;;;;2.50;0.50;;;22.50;1.00;;;;;;4910242;29;20107;-40
2023/08/03 02:22:44;;;;;;;2.03;0.60;;;22.50;1.00;;;;;;4902080;29;20075;-43
2023/08/03 02:25:11;;;;;;;4.03;0.40;;;22.50;1.00;;;;;;4904539;29;20059;-41
2023/08/03 02:27:38;;;;;;;2.38;0.75;;;22.50;1.00;;;;;;4924246;29;20044;-42
2023/08/03 02:30:06;;;;;;;3.17;0.50;;;22.50;1.00;;;;;;4919485;29;20084;-41
2023/08/03 02:32:37;;;;;;;4.10;0.57;;;22.50;1.00;;;;;;4925866;29;20037;-40
2023/08/03 02:35:04;;;;;;;2.15;1.23;;;22.50;1.00;;;;;;4910114;29;20441;-44
2023/08/03 02:37:31;;;;;;;2.50;0.60;;;22.50;1.00;;;;;;4909504;29;20051;-41
2023/08/03 02:40:08;;;;;;;3.33;0.77;;;22.40;1.00;;;;;;4876623;29;20389;-44
2023/08/03 02:42:36;;;;;;;3.88;0.57;;;22.50;1.00;;;;;;4906675;29;20040;-41
2023/08/03 02:45:04;;;;;;;1.55;0.65;;;22.40;1.00;;;;;;4917032;29;20566;-41
2023/08/03 02:47:31;;;;;;;3.53;0.63;;;22.40;1.00;;;;;;4909475;29;20134;-41
2023/08/03 02:49:58;;;;;;;2.25;1.05;;;22.40;1.00;;;;;;4917865;29;20040;-40
2023/08/03 02:52:25;;;;;;;2.42;0.70;;;22.50;1.00;;;;;;4909542;29;20400;-40
2023/08/03 02:54:52;;;;;;;4.28;0.95;;;22.40;1.00;;;;;;4918053;29;20056;-41
2023/08/03 02:57:21;;;;;;;1.90;0.65;;;22.40;1.00;;;;;;4909321;29;20052;-40
2023/08/03 02:59:50;;;;;;;1.92;0.38;;;22.40;1.00;;;;;;4901735;29;20044;-41
2023/08/03 03:02:20;;;;;;;1.75;0.30;;;22.40;1.00;;;;;;4901505;29;20571;-41
2023/08/03 03:04:47;;;;;;;1.48;0.50;;;22.40;1.00;;;;;;4926173;29;20052;-44
2023/08/03 03:07:14;;;;;;;2.92;0.55;;;22.40;1.00;;;;;;4903542;29;20116;-41
2023/08/03 03:09:41;;;;;;;4.13;0.80;;;22.40;1.00;;;;;;4898623;29;20044;-41
2023/08/03 03:12:08;;;;;;;2.80;0.77;;;22.40;1.00;;;;;;4901762;29;20052;-40
2023/08/03 03:14:45;;;;;;;5.78;0.70;;;22.40;1.00;;;;;;4901808;29;20078;-41
2023/08/03 03:17:13;;;;;;;2.67;0.65;;;22.40;1.00;;;;;;4885940;29;20389;-41
2023/08/03 03:19:42;;;;;;;2.28;0.57;;;22.40;1.00;;;;;;4908836;29;20054;-41
2023/08/03 03:22:11;;;;;;;2.03;0.55;;;22.40;1.00;;;;;;4925796;29;20059;-41
2023/08/03 03:24:39;;;;;;;2.53;0.73;;;22.40;1.00;;;;;;4893902;29;20060;-41
2023/08/03 03:27:06;;;;;;;1.92;0.50;;;22.40;1.00;;;;;;4918280;29;20115;-43
2023/08/03 03:29:41;;;;;;;2.00;0.50;;;22.40;1.00;;;;;;4894331;29;20040;-41
2023/08/03 03:32:09;;;;;;;2.53;0.43;;;22.40;1.00;;;;;;4900746;29;20055;-43
2023/08/03 03:34:37;;;;;;;3.25;0.50;;;22.40;1.00;;;;;;4900809;29;20533;-43
2023/08/03 03:37:05;;;;;;;4.45;0.85;;;22.40;1.00;;;;;;4901319;29;20060;-40
2023/08/03 03:39:32;;;;;;;1.05;0.38;;;22.30;1.00;;;;;;4924983;29;20063;-41
2023/08/03 03:42:03;;;;;;;3.78;0.68;;;22.40;1.00;;;;;;4909306;29;20555;-41
2023/08/03 03:44:30;;;;;;;1.50;0.30;;;22.30;1.00;;;;;;4908114;29;20051;-40
2023/08/03 03:46:57;;;;;;;2.47;0.68;;;22.30;1.00;;;;;;4906191;29;20044;-42
2023/08/03 03:49:27;;;;;;;6.07;1.00;;;22.30;1.00;;;;;;4897909;29;20291;-41
2023/08/03 03:51:54;;;;;;;1.80;0.77;;;22.30;1.00;;;;;;4908020;29;20048;-41
2023/08/03 03:54:25;;;;;;;3.65;0.80;;;22.30;1.00;;;;;;4903359;29;20117;-41
2023/08/03 03:56:53;;;;;;;3.17;0.40;;;22.30;1.00;;;;;;4906765;29;20072;-41
2023/08/03 03:59:19;;;;;;;3.15;0.80;;;22.30;1.00;;;;;;4900821;29;20052;-42
2023/08/03 04:01:46;;;;;;;2.75;0.47;;;22.30;1.00;;;;;;4900834;29;20064;-42
2023/08/03 04:04:13;;;;;;;1.55;0.50;;;22.30;1.00;;;;;;4908591;29;20076;-42
2023/08/03 04:06:40;;;;;;;3.90;0.60;;;22.30;1.00;;;;;;4916655;29;20041;-43
2023/08/03 04:09:07;;;;;;;3.72;0.80;;;22.30;1.00;;;;;;4901268;29;20048;-41
2023/08/03 04:11:34;;;;;;;3.00;0.68;;;22.30;1.00;;;;;;4916390;29;20033;-42
2023/08/03 04:14:01;;;;;;;2.90;0.75;;;22.30;1.00;;;;;;4892383;29;20072;-41
2023/08/03 04:16:28;;;;;;;4.10;0.73;;;22.30;1.00;;;;;;4911078;29;20068;-41
2023/08/03 04:18:55;;;;;;;1.63;0.65;;;22.30;1.00;;;;;;4898282;29;20388;-41
2023/08/03 04:21:22;;;;;;;2.67;0.85;;;22.30;1.00;;;;;;4907901;29;20154;-44
2023/08/03 04:23:49;;;;;;;6.78;1.30;;;22.30;1.00;;;;;;4906213;29;20115;-41
2023/08/03 04:26:16;;;;;;;5.05;1.05;;;22.30;1.00;;;;;;4917505;29;20052;-41
2023/08/03 04:28:44;;;;;;;6.38;1.83;;;22.20;1.00;;;;;;4890953;29;20036;-41
2023/08/03 04:31:11;;;;;;;2.38;0.93;;;22.20;1.00;;;;;;4898313;29;20045;-41
2023/08/03 04:33:42;;;;;;;5.60;1.23;;;22.20;1.00;;;;;;4896777;29;20477;-41
2023/08/03 04:36:09;;;;;;;6.80;1.17;;;22.20;1.00;;;;;;4890552;29;20073;-42
2023/08/03 04:38:38;;;;;;;7.30;0.93;;;22.20;1.00;;;;;;4905390;29;20049;-41
2023/08/03 04:41:06;;;;;;;10.32;1.25;;;22.20;1.00;;;;;;4908401;29;20440;-41
2023/08/03 04:43:37;;;;;;;3.83;1.23;;;22.20;1.00;;;;;;4908430;29;20096;-41
2023/08/03 04:46:06;;;;;;;2.97;0.60;;;22.20;1.00;;;;;;4893485;29;20131;-41
2023/08/03 04:48:33;;;;;;;1.63;0.80;;;22.20;1.00;;;;;;4900330;29;20055;-41
2023/08/03 04:51:03;;;;;;;2.70;0.93;;;22.20;1.00;;;;;;4900397;29;20051;-42
2023/08/03 04:53:32;;;;;;;6.80;1.63;;;22.20;1.00;;;;;;4908079;29;20107;-41
2023/08/03 04:55:59;;;;;;;2.42;1.10;;;22.20;1.00;;;;;;4908946;29;20137;-41
2023/08/03 04:58:26;;;;;;;4.40;1.50;;;22.20;1.00;;;;;;4923709;29;20068;-41
2023/08/03 05:00:53;;;;;;;3.72;0.65;;;22.20;1.00;;;;;;4901711;29;20143;-41
2023/08/03 05:03:20;;;;;;;2.42;0.63;;;22.20;1.00;;;;;;4911274;29;20151;-41
2023/08/03 05:05:46;;;;;;;2.85;0.70;;;22.20;1.00;;;;;;4929003;29;20036;-41
2023/08/03 05:08:17;;;;;;;4.65;1.33;;;22.20;1.00;;;;;;4903547;29;20044;-41
2023/08/03 05:10:44;;;;;;;1.88;0.77;;;22.20;1.00;;;;;;4903728;29;20040;-41
2023/08/03 05:13:11;;;;;;;4.15;0.98;;;22.20;1.00;;;;;;4920535;29;20047;-44
2023/08/03 05:15:37;;;;;;;4.85;1.10;;;22.20;1.00;;;;;;4906633;29;20055;-42
2023/08/03 05:18:04;;;;;;;3.78;0.68;;;22.20;1.00;;;;;;4922314;29;20483;-41
2023/08/03 05:20:31;;;;;;;4.05;0.90;;;22.20;1.00;;;;;;4911233;29;20052;-42
2023/08/03 05:22:59;;;;;;;2.63;1.20;;;22.20;1.00;;;;;;4903648;29;20054;-41
2023/08/03 05:25:25;;;;;;;4.70;1.00;;;22.20;1.00;;;;;;4928954;29;20064;-41
2023/08/03 05:27:52;;;;;;;3.50;1.00;;;22.10;1.00;;;;;;4927806;29;20052;-41
2023/08/03 05:30:19;;;;;;;3.20;0.80;;;22.10;1.00;;;;;;4921673;29;20087;-41
2023/08/03 05:32:46;;;;;;;4.32;0.80;;;22.10;1.00;;;;;;4921253;29;20052;-42
2023/08/03 05:35:14;;;;;;;3.05;0.60;;;22.10;1.00;;;;;;4928977;29;20144;-41
2023/08/03 05:37:41;;;;;;;2.13;0.73;;;22.10;1.00;;;;;;4928554;29;20052;-41
2023/08/03 05:40:08;;;;;;;3.80;0.73;;;22.10;1.00;;;;;;4909405;29;20086;-40
2023/08/03 05:42:38;;;;;;;1.83;0.70;;;22.10;1.00;;;;;;4906652;29;20055;-41
2023/08/03 05:45:11;;;;;;;4.93;0.82;;;22.10;1.00;;;;;;4920755;29;20508;-41
2023/08/03 05:47:39;;;;;;;2.33;0.73;;;22.10;1.00;;;;;;4928172;29;20555;-41
2023/08/03 05:50:15;;;;;;;4.68;1.05;;;22.10;1.00;;;;;;4903305;29;20408;-40
2023/08/03 05:52:42;;;;;;;3.55;0.70;;;22.10;1.00;;;;;;4929341;29;20044;-41
2023/08/03 05:55:11;;;;;;;2.85;0.70;;;22.10;1.00;;;;;;4920403;29;20044;-42
2023/08/03 05:57:39;;;;;;;2.40;0.60;;;22.10;1.00;;;;;;4928389;29;20044;-41
2023/08/03 06:00:19;;;;;;;3.90;0.80;;;22.10;1.00;;;;;;4928049;29;20044;-41
2023/08/03 06:02:46;;;;;;;6.53;0.80;;;22.20;1.00;;;;;;4920085;29;20110;-41
2023/08/03 06:05:39;;;;;;;3.30;0.80;;;22.10;1.00;;;;;;4928179;29;20055;-41
2023/08/03 06:08:22;;;;;;;2.07;0.60;;;22.10;1.00;;;;;;4918489;29;20072;-41
2023/08/03 06:10:51;;;;;;;2.42;0.93;;;22.20;1.00;;;;;;4927727;29;20383;-42
2023/08/03 06:13:20;;;;;;;1.00;0.57;;;22.10;1.00;;;;;;4927539;29;20063;-41
2023/08/03 06:15:47;;;;;;;2.00;0.52;;;22.10;1.00;;;;;;4920560;29;20512;-43
2023/08/03 06:18:16;;;;;;;1.65;0.82;;;22.10;1.00;;;;;;4926669;29;20050;-42
2023/08/03 06:20:48;;;;;;;2.67;1.63;;;22.20;1.00;;;;;;4903511;29;20053;-40
2023/08/03 06:23:19;;;;;;;1.40;0.70;;;22.20;1.00;;;;;;4923788;29;20408;-41
2023/08/03 06:25:47;;;;;;;1.17;0.40;;;22.20;1.00;;;;;;4923304;29;20036;-41
2023/08/03 06:28:19;;;;;;;2.25;1.02;;;22.20;1.00;;;;;;4916605;29;20068;-40
2023/08/03 06:30:47;;;;;;;3.67;0.60;;;22.20;1.00;;;;;;4922834;29;20046;-40
2023/08/03 06:33:17;;;;;;;1.95;0.70;;;22.20;1.00;;;;;;4919455;29;20056;-41
2023/08/03 06:35:46;;;;;;;2.75;0.63;;;22.20;1.00;;;;;;4920439;29;20049;-41
2023/08/03 06:38:15;;;;;;;5.38;0.90;;;22.20;1.00;;;;;;4918120;29;20053;-40
2023/08/03 06:40:43;;;;;;;6.20;1.10;;;22.30;1.00;;;;;;4910297;29;20044;-40
2023/08/03 06:43:11;;;;;;;3.60;0.80;;;22.30;1.00;;;;;;4926639;29;20051;-40
2023/08/03 06:45:38;;;;;;;1.40;0.55;;;22.30;1.00;;;;;;4918512;29;20055;-41
2023/08/03 06:48:05;;;;;;;1.50;0.57;;;22.30;1.00;;;;;;4919374;29;20051;-41
2023/08/03 06:50:33;;;;;;;0.88;0.30;;;22.30;1.00;;;;;;4919220;29;20047;-41
2023/08/03 06:53:02;;;;;;;2.30;1.45;;;22.30;1.00;;;;;;4926449;29;20495;-42
2023/08/03 06:55:30;;;;;;;2.13;0.80;;;22.30;1.00;;;;;;4920256;29;20040;-42
2023/08/03 06:57:57;;;;;;;2.90;1.00;;;22.30;1.00;;;;;;4901737;29;20051;-41
2023/08/03 07:00:26;;;;;;;2.80;0.43;;;22.30;1.00;;;;;;4923280;29;20049;-41
2023/08/03 07:02:53;;;;;;;4.50;0.73;;;22.30;1.00;;;;;;4905821;29;20056;-41
2023/08/03 07:05:24;;;;;;;2.35;0.60;;;22.30;1.00;;;;;;4911267;29;20054;-41
2023/08/03 07:07:51;;;;;;;3.35;0.93;;;22.30;1.00;;;;;;4919829;29;20092;-41
2023/08/03 07:10:18;;;;;;;1.98;0.60;;;22.30;1.00;;;;;;4918224;29;20040;-41
2023/08/03 07:12:44;;;;;;;1.70;0.50;;;22.30;1.00;;;;;;4901498;29;20116;-44
2023/08/03 07:15:12;;;;;;;3.75;0.88;;;22.30;1.00;;;;;;4917943;29;20049;-41
2023/08/03 07:17:39;;;;;;;4.25;0.80;;;22.30;1.00;;;;;;4926037;29;20550;-42
2023/08/03 07:20:08;;;;;;;3.53;0.80;;;22.30;1.00;;;;;;4926577;29;20040;-42
2023/08/03 07:22:36;;;;;;;2.00;0.68;;;22.30;1.00;;;;;;4918410;29;20037;-42
2023/08/03 07:25:04;;;;;;;2.05;0.30;;;22.30;1.00;;;;;;4925853;29;20131;-41
2023/08/03 07:27:33;;;;;;;2.65;0.65;;;22.30;1.00;;;;;;4918416;29;20040;-43
2023/08/03 07:29:59;;;;;;;2.50;0.63;;;22.40;1.00;;;;;;4925643;29;20048;-41
2023/08/03 07:32:26;;;;;;;3.53;0.77;;;22.40;1.00;;;;;;4918294;29;20512;-41
2023/08/03 07:34:53;;;;;;;2.45;1.13;;;22.40;1.00;;;;;;4926013;29;20075;-42
2023/08/03 07:37:22;;;;;;;3.80;1.83;;;22.40;1.00;;;;;;4900829;29;20048;-41
2023/08/03 07:39:49;;;;;;;3.00;0.82;;;22.40;1.00;;;;;;4925904;29;20132;-41
2023/08/03 07:42:16;;;;;;;3.97;0.68;;;22.40;1.00;;;;;;4917742;29;20051;-41
2023/08/03 07:44:43;;;;;;;2.35;0.50;;;22.40;1.00;;;;;;4917535;29;20064;-41
2023/08/03 07:47:13;;;;;;;1.48;0.90;;;22.40;1.00;;;;;;4918030;29;20511;-44
2023/08/03 07:49:40;;;;;;;3.10;0.85;;;22.40;1.00;;;;;;4925554;29;20043;-42
2023/08/03 07:52:07;;;;;;;2.47;0.50;;;22.40;1.00;;;;;;4925290;29;20400;-42
2023/08/03 07:54:34;;;;;;;1.38;0.60;;;22.40;1.00;;;;;;4908101;29;20523;-42
2023/08/03 07:57:00;;;;;;;2.88;0.73;;;22.40;1.00;;;;;;4917499;29;20057;-40
2023/08/03 07:59:27;;;;;;;3.70;0.68;;;22.40;1.00;;;;;;4917564;29;20108;-42
2023/08/03 08:01:55;;;;;;;2.15;0.47;;;22.40;1.00;;;;;;4918585;29;20056;-41
2023/08/03 08:04:22;;;;;;;3.47;0.60;;;22.50;1.00;;;;;;4898192;29;20048;-47
2023/08/03 08:06:49;;;;;;;3.05;0.80;;;22.50;1.00;;;;;;4926616;29;20044;-46
2023/08/03 08:09:16;;;;;;;1.83;0.90;;;22.50;1.00;;;;;;4917831;29;20048;-41
2023/08/03 08:11:43;;;;;;;3.88;0.50;;;22.50;1.00;;;;;;4920343;29;20078;-44
2023/08/03 08:14:10;;;;;;;4.70;0.82;;;22.50;1.00;;;;;;4914619;29;20055;-44
2023/08/03 08:16:38;;;;;;;1.33;0.75;;;22.50;1.00;;;;;;4924880;29;20048;-41
2023/08/03 08:19:05;;;;;;;3.78;2.25;;;22.50;1.00;;;;;;4924855;29;20619;-42
2023/08/03 08:21:32;;;;;;;2.65;0.80;;;22.50;1.00;;;;;;4924505;29;20055;-42
2023/08/03 08:23:59;;;;;;;3.47;0.75;;;22.60;1.00;;;;;;4916353;29;20103;-42
2023/08/03 08:26:26;;;;;;;3.28;0.60;;;22.60;1.00;;;;;;4920476;29;20068;-46
2023/08/03 08:28:56;;;;;;;3.22;1.33;;;22.60;1.00;;;;;;4919065;29;20044;-46
2023/08/03 08:31:31;;;;;;;3.70;0.80;;;22.60;1.00;;;;;;4913452;29;20044;-42
2023/08/03 08:34:18;;;;;;;2.83;0.88;;;22.60;1.00;;;;;;4906354;29;20072;-41
2023/08/03 08:36:45;;;;;;;2.28;0.73;;;22.60;1.00;;;;;;4931109;29;20076;-43
2023/08/03 08:39:12;;;;;;;3.83;1.45;;;22.50;1.00;;;;;;4930532;29;20051;-41
2023/08/03 08:41:40;;;;;;;2.20;0.73;;;22.50;1.00;;;;;;4929285;29;20338;-41
2023/08/03 08:44:13;;;;;;;1.85;1.33;;;22.50;1.00;;;;;;4930102;29;20127;-44
2023/08/03 08:46:46;;;;;;;4.22;0.80;;;22.60;1.00;;;;;;4929224;29;20075;-43
2023/08/03 08:49:13;;;;;;;3.80;0.50;;;22.50;1.00;;;;;;4905907;29;20408;-41
2023/08/03 08:51:45;;;;;;;2.58;1.15;;;22.50;1.00;;;;;;4923264;29;20377;-41
2023/08/03 08:54:17;;;;;;;2.92;0.65;;;22.50;1.00;;;;;;4931529;29;20052;-44
2023/08/03 08:56:45;;;;;;;4.32;0.85;;;22.60;1.00;;;;;;4931601;29;20055;-42
2023/08/03 08:59:15;;;;;;;6.15;1.38;;;22.50;1.00;;;;;;4924169;29;20044;-42
2023/08/03 09:01:53;;;;;;;5.90;0.95;;;22.60;1.00;;;;;;4921706;29;20099;-41
2023/08/03 09:04:31;;;;;;;3.45;0.73;;;22.60;1.00;;;;;;4930170;29;20484;-42
2023/08/03 09:07:00;;;;;;;3.03;0.70;;;22.60;1.00;;;;;;4930602;29;20069;-41
2023/08/03 09:09:35;;;;;;;2.70;0.77;;;22.60;1.00;;;;;;4923190;29;20048;-41
2023/08/03 09:12:03;;;;;;;7.78;1.40;;;22.50;1.00;;;;;;4923540;29;20132;-41
2023/08/03 09:14:49;;;;;;;4.10;2.10;;;22.60;1.00;;;;;;4893558;29;20085;-42
2023/08/03 09:17:17;;;;;;;2.95;0.80;;;22.50;1.00;;;;;;4923855;29;20063;-43
2023/08/03 09:19:47;;;;;;;3.30;0.75;;;22.50;1.00;;;;;;4907344;29;20071;-45
2023/08/03 09:22:18;;;;;;;6.80;1.05;;;22.50;1.00;;;;;;4930692;29;20058;-41
2023/08/03 09:25:00;;;;;;;1.85;1.30;;;22.60;1.00;;;;;;4925859;29;20044;-41
2023/08/03 09:27:28;;;;;;;2.15;0.93;;;22.60;1.00;;;;;;4929530;29;20046;-41
2023/08/03 09:30:01;;;;;;;4.63;0.77;;;22.50;1.00;;;;;;4922735;29;20103;-42
2023/08/03 09:32:34;;;;;;;5.55;0.93;;;22.60;1.00;;;;;;4914489;29;20460;-41
2023/08/03 09:35:02;;;;;;;4.00;0.95;;;22.60;1.00;;;;;;4928954;29;20048;-43
2023/08/03 09:37:36;;;;;;;2.42;0.68;;;22.60;1.00;;;;;;4927188;29;20079;-42
2023/08/03 09:40:07;;;;;;;2.90;0.88;;;22.60;1.00;;;;;;4908880;29;20492;-40
2023/08/03 09:42:36;;;;;;;6.05;1.55;;;22.60;1.00;;;;;;4901539;29;20472;-40
2023/08/03 09:45:06;;;;;;;3.45;1.05;;;22.50;1.00;;;;;;4926752;29;20091;-44
2023/08/03 09:47:55;;;;;;;7.40;1.38;;;22.60;1.00;;;;;;4914472;29;20048;-41
2023/08/03 09:50:24;;;;;;;3.75;1.23;;;22.60;1.00;;;;;;4917132;29;20048;-42
2023/08/03 09:52:54;;;;;;;4.65;0.85;;;22.60;1.00;;;;;;4923172;29;20059;-43
2023/08/03 09:55:27;;;;;;;3.85;0.77;;;22.60;1.00;;;;;;4926728;29;20044;-41
2023/08/03 09:58:07;;;;;;;4.70;0.93;;;22.60;1.00;;;;;;4922247;29;20127;-41
2023/08/03 10:00:34;;;;;;;4.75;1.00;;;22.60;1.00;;;;;;4929023;29;20051;-41
2023/08/03 10:03:12;;;;;;;5.22;0.75;;;22.60;1.00;;;;;;4922173;29;20056;-40
2023/08/03 10:05:43;;;;;;;5.10;1.40;;;22.60;1.00;;;;;;4913445;29;20052;-44
2023/08/03 10:08:39;;;;;;;3.60;1.08;;;22.60;1.00;;;;;;4905292;29;20044;-43
2023/08/03 10:11:09;;;;;;;3.92;1.17;;;22.60;1.00;;;;;;4921499;29;20552;-40
2023/08/03 10:13:45;;;;;;;4.85;1.40;;;22.60;1.00;;;;;;4924735;29;20045;-41
2023/08/03 10:16:13;;;;;;;5.88;1.00;;;22.60;1.00;;;;;;4917652;29;20127;-41
2023/08/03 10:18:42;;;;;;;4.00;1.00;;;22.60;1.00;;;;;;4919356;29;20110;-41
2023/08/03 10:21:26;;;;;;;4.13;1.33;;;22.60;1.00;;;;;;4919364;29;20077;-41
2023/08/03 10:24:11;;;;;;;6.68;1.55;;;22.60;1.00;;;;;;4921710;29;20067;-45
2023/08/03 10:26:40;;;;;;;3.95;1.10;;;22.60;1.00;;;;;;4928682;29;20453;-41
2023/08/03 10:29:07;;;;;;;2.13;0.98;;;22.60;1.00;;;;;;4925811;29;20048;-42
2023/08/03 10:31:53;;;;;;;1.67;0.82;;;22.60;1.00;;;;;;4917665;29;20583;-41
2023/08/03 10:34:39;;;;;;;5.07;1.67;;;22.60;1.00;;;;;;4918274;29;20045;-41
2023/08/03 10:37:12;;;;;;;4.35;1.75;;;22.60;1.00;;;;;;4903601;29;20065;-40
2023/08/03 10:39:49;;;;;;;;;;;22.60;1.00;;;;;;4911090;29;20103;-41
2023/08/03 10:42:19;;;;;;;5.85;2.17;;;22.60;1.00;;;;;;4921010;29;20340;-41
2023/08/03 10:44:46;;;;;;;5.38;1.20;;;22.60;1.00;;;;;;4927038;29;20040;-41
2023/08/03 10:47:27;;;;;;;5.00;1.20;;;22.60;1.00;;;;;;4926742;29;20536;-42
2023/08/03 10:49:57;;;;;;;5.00;1.33;;;22.60;1.00;;;;;;4913136;29;20048;-41
2023/08/03 10:52:29;;;;;;;4.43;0.90;;;22.60;1.00;;;;;;4918625;29;20136;-41
2023/08/03 10:54:58;;;;;;;5.75;1.30;;;22.60;1.00;;;;;;4895373;29;20055;-40
2023/08/03 10:57:29;;;;;;;4.22;0.98;;;22.60;1.00;;;;;;4908824;29;20070;-45
2023/08/03 10:59:58;;;;;;;5.43;2.40;;;22.60;1.00;;;;;;4900013;29;20135;-43
2023/08/03 11:02:29;;;;;;;8.38;1.60;;;22.60;1.00;;;;;;4908454;29;20056;-44
2023/08/03 11:05:05;;;;;;;2.65;1.45;;;22.60;1.00;;;;;;4902611;29;20469;-41
2023/08/03 11:07:40;;;;;;;5.00;0.95;;;22.60;1.00;;;;;;4914671;29;20036;-43
2023/08/03 11:10:10;;;;;;;3.77;0.90;;;22.60;1.00;;;;;;4906602;29;20679;-40
2023/08/03 11:12:38;;;;;;;5.95;1.33;;;22.60;1.00;;;;;;4910042;29;20060;-45
2023/08/03 11:15:07;;;;;;;8.85;1.05;;;22.60;1.00;;;;;;4906692;29;20524;-42
2023/08/03 11:17:36;;;;;;;5.53;1.67;;;22.60;1.00;;;;;;4896162;29;20071;-41
2023/08/03 11:20:06;;;;;;;11.23;1.83;;;22.60;1.00;;;;;;4903021;29;20048;-40
2023/08/03 11:22:33;;;;;;;5.00;1.48;;;22.60;1.00;;;;;;4905940;29;20496;-41
2023/08/03 11:25:03;;;;;;;7.20;1.70;;;22.60;1.00;;;;;;4902956;29;20076;-40
2023/08/03 11:27:31;;;;;;;5.07;1.13;;;22.60;1.00;;;;;;4914148;29;20493;-41
2023/08/03 11:29:58;;;;;;;7.63;1.55;;;22.60;1.00;;;;;;4905357;29;20048;-42
2023/08/03 11:32:30;;;;;;;3.90;1.35;;;22.60;1.00;;;;;;4908884;29;20100;-42
2023/08/03 11:35:02;;;;;;;3.47;0.88;;;22.60;1.00;;;;;;4901358;29;20036;-43
2023/08/03 11:37:30;;;;;;;7.60;1.90;;;22.60;1.00;;;;;;4886431;29;20057;-41
2023/08/03 11:40:00;;;;;;;5.32;1.60;;;22.60;1.00;;;;;;4917628;29;20051;-44
2023/08/03 11:42:28;;;;;;;5.47;1.42;;;22.60;1.00;;;;;;4921008;29;20063;-41
2023/08/03 11:44:55;;;;;;;2.42;1.08;;;22.60;1.00;;;;;;4918309;29;20401;-45
2023/08/03 11:47:23;;;;;;;3.70;1.13;;;22.60;1.00;;;;;;4912031;29;20052;-43
2023/08/03 11:49:56;;;;;;;5.22;1.42;;;22.60;1.00;;;;;;4908487;29;20072;-41
2023/08/03 11:52:23;;;;;;;3.33;1.17;;;22.70;1.00;;;;;;4924057;29;20048;-41
2023/08/03 11:54:50;;;;;;;6.25;1.13;;;22.60;1.00;;;;;;4922497;29;20048;-42
2023/08/03 12:00:06;;;;;;;4.65;0.88;;;22.70;1.00;;;;;;4908043;29;20111;-42
2023/08/03 12:02:44;;;;;;;4.38;0.88;;;22.70;1.00;;;;;;4908605;29;20556;-42
2023/08/03 12:05:12;;;;;;;3.47;1.10;;;22.70;1.00;;;;;;4904406;29;20051;-41
2023/08/03 12:07:52;;;;;;;2.53;0.90;;;22.60;1.00;;;;;;4904791;29;20032;-43
2023/08/03 12:10:22;;;;;;;10.63;1.65;;;22.60;1.00;;;;;;4918116;29;20067;-43
2023/08/03 12:12:49;;;;;;;6.38;1.23;;;22.60;1.00;;;;;;4920894;29;20127;-45
2023/08/03 12:15:16;;;;;;;5.18;1.00;;;22.60;1.00;;;;;;4914710;29;20602;-40
2023/08/03 12:17:43;;;;;;;3.13;0.70;;;22.60;1.00;;;;;;4912878;29;20044;-41
2023/08/03 12:20:10;;;;;;;7.00;2.17;;;22.60;1.00;;;;;;4907701;29;20044;-41
2023/08/03 12:22:37;;;;;;;7.15;1.98;;;22.60;1.00;;;;;;4923127;29;20048;-42
2023/08/03 12:25:05;;;;;;;7.65;1.60;;;22.60;1.00;;;;;;4920204;29;20068;-41
2023/08/03 12:27:32;;;;;;;5.82;1.98;;;22.60;1.00;;;;;;4923904;29;20076;-45
2023/08/03 12:30:03;;;;;;;7.07;1.73;;;22.60;1.00;;;;;;4919325;29;20048;-40
2023/08/03 12:32:30;;;;;;;7.57;1.83;;;22.60;1.00;;;;;;4903637;29;20071;-42
2023/08/03 12:34:59;;;;;;;9.05;2.33;;;22.60;1.00;;;;;;4916015;29;20052;-42
2023/08/03 12:37:26;;;;;;;9.00;1.90;;;22.60;1.00;;;;;;4907182;29;20539;-42
2023/08/03 12:39:52;;;;;;;10.40;2.28;;;22.60;1.00;;;;;;4916511;29;20048;-42
2023/08/03 12:42:19;;;;;;;11.02;2.38;;;22.60;1.00;;;;;;4910663;29;20135;-42
2023/08/03 12:44:48;;;;;;;11.60;2.70;;;22.60;1.00;;;;;;4907074;29;20127;-42
2023/08/03 12:47:15;;;;;;;14.02;3.55;;;22.60;1.00;;;;;;4911876;29;20056;-41
2023/08/03 12:49:42;;;;;;;10.35;2.67;;;22.50;1.00;;;;;;4916014;29;20098;-41
2023/08/03 12:52:09;;;;;;;10.07;1.77;;;22.50;1.00;;;;;;4893463;29;20048;-45
2023/08/03 12:54:36;;;;;;;9.40;3.30;;;22.50;1.00;;;;;;4903912;29;20067;-41
2023/08/03 12:57:03;;;;;;;10.43;2.67;;;22.50;1.00;;;;;;4915956;29;20052;-41
2023/08/03 12:59:31;;;;;;;10.15;2.42;;;22.50;1.00;;;;;;4915746;29;20113;-43
2023/08/03 13:01:59;;;;;;;7.60;2.13;;;22.60;1.00;;;;;;4924398;29;20067;-41
2023/08/03 13:04:26;;;;;;;8.40;2.20;;;22.50;1.00;;;;;;4922057;29;20134;-42
2023/08/03 13:06:53;;;;;;;5.75;1.58;;;22.50;1.00;;;;;;4922378;29;20041;-41
2023/08/03 13:09:20;;;;;;;9.80;2.58;;;22.50;1.00;;;;;;4924155;29;20059;-43